Terminal Aerodrome Forecast
Issued by NWS

Home | Current Version | Previous Version | Text Only | Print | Product List | Glossary On
Versions: 1 2 3 4 5 6 7 8 9 10 11 12 13
000
FTUS44 KJAN 282321
TAFGTR
TAF
KGTR 282321Z 2900/2924 13006KT P6SM SCT250
     FM291000 14003KT 4SM BR BKN250
     FM291400 15008KT P6SM SCT050 BKN250=

USA.gov is the U.S. government's official web portal to all federal, state and local government web resources and services.